sensor_id;sensor_type;location;lat;lon;timestamp;pressure;altitude;pressure_sealevel;temperature
70533;BMP180;58088;51.186;17.130;2022-12-07T00:01:38;99804.40;;;4.80
70533;BMP180;58088;51.186;17.130;2022-12-07T00:04:07;99802.00;;;4.80
70533;BMP180;58088;51.186;17.130;2022-12-07T00:06:37;99806.60;;;4.80
70533;BMP180;58088;51.186;17.130;2022-12-07T00:09:06;99802.80;;;4.80
70533;BMP180;58088;51.186;17.130;2022-12-07T00:11:33;99805.00;;;4.80
70533;BMP180;58088;51.186;17.130;2022-12-07T00:14:04;99800.80;;;4.80
70533;BMP180;58088;51.186;17.130;2022-12-07T00:16:33;99803.40;;;4.86
70533;BMP180;58088;51.186;17.130;2022-12-07T00:19:00;99801.60;;;4.90
70533;BMP180;58088;51.186;17.130;2022-12-07T00:21:35;99798.80;;;4.90
70533;BMP180;58088;51.186;17.130;2022-12-07T00:24:04;99795.60;;;4.90
70533;BMP180;58088;51.186;17.130;2022-12-07T00:26:37;99792.40;;;4.90
70533;BMP180;58088;51.186;17.130;2022-12-07T00:29:17;99788.40;;;4.90
70533;BMP180;58088;51.186;17.130;2022-12-07T00:31:44;99781.60;;;4.88
70533;BMP180;58088;51.186;17.130;2022-12-07T00:34:18;99784.20;;;4.88
70533;BMP180;58088;51.186;17.130;2022-12-07T00:36:44;99787.20;;;4.88
70533;BMP180;58088;51.186;17.130;2022-12-07T00:39:11;99786.80;;;4.80
70533;BMP180;58088;51.186;17.130;2022-12-07T00:41:37;99781.00;;;4.80
70533;BMP180;58088;51.186;17.130;2022-12-07T00:44:04;99782.60;;;4.90
70533;BMP180;58088;51.186;17.130;2022-12-07T00:46:30;99779.80;;;4.90
70533;BMP180;58088;51.186;17.130;2022-12-07T00:48:57;99784.20;;;4.90
70533;BMP180;58088;51.186;17.130;2022-12-07T00:51:24;99781.00;;;4.90
70533;BMP180;58088;51.186;17.130;2022-12-07T00:53:52;99778.80;;;4.90
70533;BMP180;58088;51.186;17.130;2022-12-07T00:56:26;99775.20;;;4.90
70533;BMP180;58088;51.186;17.130;2022-12-07T00:58:58;99782.80;;;4.90
70533;BMP180;58088;51.186;17.130;2022-12-07T01:01:28;99788.60;;;4.90
70533;BMP180;58088;51.186;17.130;2022-12-07T01:03:55;99783.20;;;4.90
70533;BMP180;58088;51.186;17.130;2022-12-07T01:06:23;99787.80;;;4.90
70533;BMP180;58088;51.186;17.130;2022-12-07T01:08:49;99787.00;;;4.90
70533;BMP180;58088;51.186;17.130;2022-12-07T01:11:21;99782.40;;;4.90
70533;BMP180;58088;51.186;17.130;2022-12-07T01:13:51;99782.40;;;4.82
70533;BMP180;58088;51.186;17.130;2022-12-07T01:16:20;99782.40;;;4.90
70533;BMP180;58088;51.186;17.130;2022-12-07T01:18:49;99786.00;;;4.90
70533;BMP180;58088;51.186;17.130;2022-12-07T01:21:23;99779.80;;;4.84
70533;BMP180;58088;51.186;17.130;2022-12-07T01:23:50;99779.60;;;4.84
70533;BMP180;58088;51.186;17.130;2022-12-07T01:26:22;99772.60;;;4.80
70533;BMP180;58088;51.186;17.130;2022-12-07T01:28:49;99777.20;;;4.80
70533;BMP180;58088;51.186;17.130;2022-12-07T01:31:19;99768.00;;;4.80
70533;BMP180;58088;51.186;17.130;2022-12-07T01:33:55;99776.80;;;4.80
70533;BMP180;58088;51.186;17.130;2022-12-07T01:36:28;99768.40;;;4.80
70533;BMP180;58088;51.186;17.130;2022-12-07T01:38:59;99774.40;;;4.80
70533;BMP180;58088;51.186;17.130;2022-12-07T01:41:33;99771.00;;;4.80
70533;BMP180;58088;51.186;17.130;2022-12-07T01:44:23;99765.40;;;4.78
70533;BMP180;58088;51.186;17.130;2022-12-07T01:46:59;99770.00;;;4.70
70533;BMP180;58088;51.186;17.130;2022-12-07T01:49:48;99771.00;;;4.70
70533;BMP180;58088;51.186;17.130;2022-12-07T01:52:31;99776.20;;;4.70
70533;BMP180;58088;51.186;17.130;2022-12-07T01:55:07;99769.20;;;4.70
70533;BMP180;58088;51.186;17.130;2022-12-07T01:57:40;99772.60;;;4.70
70533;BMP180;58088;51.186;17.130;2022-12-07T02:00:12;99770.80;;;4.68
70533;BMP180;58088;51.186;17.130;2022-12-07T02:03:06;99773.00;;;4.70
70533;BMP180;58088;51.186;17.130;2022-12-07T02:05:42;99775.20;;;4.70
70533;BMP180;58088;51.186;17.130;2022-12-07T02:08:10;99770.00;;;4.68
70533;BMP180;58088;51.186;17.130;2022-12-07T02:10:37;99775.00;;;4.68
70533;BMP180;58088;51.186;17.130;2022-12-07T02:13:08;99779.20;;;4.70
70533;BMP180;58088;51.186;17.130;2022-12-07T02:16:10;99777.40;;;4.70
70533;BMP180;58088;51.186;17.130;2022-12-07T02:21:46;99765.60;;;4.70
70533;BMP180;58088;51.186;17.130;2022-12-07T02:30:12;99768.00;;;4.66
70533;BMP180;58088;51.186;17.130;2022-12-07T02:38:20;99769.40;;;4.60
70533;BMP180;58088;51.186;17.130;2022-12-07T02:44:05;99772.20;;;4.60
70533;BMP180;58088;51.186;17.130;2022-12-07T02:46:49;99773.20;;;4.60
70533;BMP180;58088;51.186;17.130;2022-12-07T02:49:17;99767.80;;;4.50
70533;BMP180;58088;51.186;17.130;2022-12-07T02:51:46;99766.00;;;4.54
70533;BMP180;58088;51.186;17.130;2022-12-07T02:54:19;99765.40;;;4.50
70533;BMP180;58088;51.186;17.130;2022-12-07T02:59:50;99756.20;;;4.50
70533;BMP180;58088;51.186;17.130;2022-12-07T03:05:37;99754.60;;;4.50
70533;BMP180;58088;51.186;17.130;2022-12-07T03:08:36;99753.40;;;4.50
70533;BMP180;58088;51.186;17.130;2022-12-07T03:11:17;99761.40;;;4.40
70533;BMP180;58088;51.186;17.130;2022-12-07T03:17:17;99772.20;;;4.40
70533;BMP180;58088;51.186;17.130;2022-12-07T03:19:49;99763.60;;;4.50
70533;BMP180;58088;51.186;17.130;2022-12-07T03:22:19;99758.40;;;4.50
70533;BMP180;58088;51.186;17.130;2022-12-07T03:24:55;99767.80;;;4.50
70533;BMP180;58088;51.186;17.130;2022-12-07T03:27:30;99758.60;;;4.50
70533;BMP180;58088;51.186;17.130;2022-12-07T03:30:30;99759.40;;;4.50
70533;BMP180;58088;51.186;17.130;2022-12-07T03:33:10;99759.40;;;4.52
70533;BMP180;58088;51.186;17.130;2022-12-07T03:35:45;99758.80;;;4.52
70533;BMP180;58088;51.186;17.130;2022-12-07T03:38:18;99752.80;;;4.50
70533;BMP180;58088;51.186;17.130;2022-12-07T03:43:31;99745.60;;;4.50
70533;BMP180;58088;51.186;17.130;2022-12-07T03:46:35;99742.20;;;4.50
70533;BMP180;58088;51.186;17.130;2022-12-07T03:49:13;99737.60;;;4.50
70533;BMP180;58088;51.186;17.130;2022-12-07T03:51:56;99740.20;;;4.50
70533;BMP180;58088;51.186;17.130;2022-12-07T03:54:37;99731.00;;;4.50
70533;BMP180;58088;51.186;17.130;2022-12-07T03:57:07;99735.80;;;4.48
70533;BMP180;58088;51.186;17.130;2022-12-07T03:59:35;99731.00;;;4.44
70533;BMP180;58088;51.186;17.130;2022-12-07T04:02:06;99732.80;;;4.40
70533;BMP180;58088;51.186;17.130;2022-12-07T04:04:34;99736.60;;;4.40
70533;BMP180;58088;51.186;17.130;2022-12-07T04:07:00;99738.00;;;4.40
70533;BMP180;58088;51.186;17.130;2022-12-07T04:09:27;99742.80;;;4.38
70533;BMP180;58088;51.186;17.130;2022-12-07T04:11:53;99738.80;;;4.40
70533;BMP180;58088;51.186;17.130;2022-12-07T04:14:19;99739.20;;;4.40
70533;BMP180;58088;51.186;17.130;2022-12-07T04:16:53;99738.80;;;4.40
70533;BMP180;58088;51.186;17.130;2022-12-07T04:19:24;99741.20;;;4.40
70533;BMP180;58088;51.186;17.130;2022-12-07T04:21:51;99740.80;;;4.40
70533;BMP180;58088;51.186;17.130;2022-12-07T04:24:17;99740.20;;;4.40
70533;BMP180;58088;51.186;17.130;2022-12-07T04:26:45;99738.00;;;4.40
70533;BMP180;58088;51.186;17.130;2022-12-07T04:29:13;99744.00;;;4.40
70533;BMP180;58088;51.186;17.130;2022-12-07T04:31:40;99749.40;;;4.46
70533;BMP180;58088;51.186;17.130;2022-12-07T04:34:08;99742.40;;;4.46
70533;BMP180;58088;51.186;17.130;2022-12-07T04:36:35;99743.20;;;4.50
70533;BMP180;58088;51.186;17.130;2022-12-07T04:39:03;99738.00;;;4.50
70533;BMP180;58088;51.186;17.130;2022-12-07T04:41:29;99742.60;;;4.50
70533;BMP180;58088;51.186;17.130;2022-12-07T04:44:01;99737.00;;;4.50
70533;BMP180;58088;51.186;17.130;2022-12-07T04:46:30;99738.60;;;4.50
70533;BMP180;58088;51.186;17.130;2022-12-07T04:48:58;99725.80;;;4.50
70533;BMP180;58088;51.186;17.130;2022-12-07T04:51:28;99737.00;;;4.50
70533;BMP180;58088;51.186;17.130;2022-12-07T04:53:56;99730.80;;;4.50
70533;BMP180;58088;51.186;17.130;2022-12-07T04:56:23;99736.60;;;4.40
70533;BMP180;58088;51.186;17.130;2022-12-07T04:58:52;99731.80;;;4.40
70533;BMP180;58088;51.186;17.130;2022-12-07T05:01:20;99735.20;;;4.50
70533;BMP180;58088;51.186;17.130;2022-12-07T05:03:46;99730.20;;;4.48
70533;BMP180;58088;51.186;17.130;2022-12-07T05:06:14;99737.40;;;4.46
70533;BMP180;58088;51.186;17.130;2022-12-07T05:08:41;99736.00;;;4.50
70533;BMP180;58088;51.186;17.130;2022-12-07T05:11:11;99739.00;;;4.50
70533;BMP180;58088;51.186;17.130;2022-12-07T05:14:02;99735.80;;;4.50
70533;BMP180;58088;51.186;17.130;2022-12-07T05:16:29;99733.60;;;4.50
70533;BMP180;58088;51.186;17.130;2022-12-07T05:18:55;99728.80;;;4.50
70533;BMP180;58088;51.186;17.130;2022-12-07T05:21:23;99738.00;;;4.50
70533;BMP180;58088;51.186;17.130;2022-12-07T05:23:49;99731.80;;;4.52
70533;BMP180;58088;51.186;17.130;2022-12-07T05:26:16;99733.20;;;4.60
70533;BMP180;58088;51.186;17.130;2022-12-07T05:28:42;99732.20;;;4.50
70533;BMP180;58088;51.186;17.130;2022-12-07T05:31:08;99729.20;;;4.50
70533;BMP180;58088;51.186;17.130;2022-12-07T05:33:35;99731.60;;;4.50
70533;BMP180;58088;51.186;17.130;2022-12-07T05:36:02;99734.40;;;4.50
70533;BMP180;58088;51.186;17.130;2022-12-07T05:38:32;99729.80;;;4.58
70533;BMP180;58088;51.186;17.130;2022-12-07T05:41:05;99728.00;;;4.52
70533;BMP180;58088;51.186;17.130;2022-12-07T05:43:33;99735.60;;;4.52
70533;BMP180;58088;51.186;17.130;2022-12-07T05:45:59;99731.00;;;4.60
70533;BMP180;58088;51.186;17.130;2022-12-07T05:48:26;99731.80;;;4.58
70533;BMP180;58088;51.186;17.130;2022-12-07T05:50:53;99736.00;;;4.60
70533;BMP180;58088;51.186;17.130;2022-12-07T05:53:19;99735.20;;;4.60
70533;BMP180;58088;51.186;17.130;2022-12-07T05:55:45;99730.20;;;4.60
70533;BMP180;58088;51.186;17.130;2022-12-07T05:58:11;99731.20;;;4.60
70533;BMP180;58088;51.186;17.130;2022-12-07T06:00:56;99736.20;;;4.60
70533;BMP180;58088;51.186;17.130;2022-12-07T06:03:23;99731.20;;;4.60
70533;BMP180;58088;51.186;17.130;2022-12-07T06:05:49;99727.80;;;4.60
70533;BMP180;58088;51.186;17.130;2022-12-07T06:08:15;99728.40;;;4.60
70533;BMP180;58088;51.186;17.130;2022-12-07T06:10:41;99719.60;;;4.60
70533;BMP180;58088;51.186;17.130;2022-12-07T06:13:08;99728.40;;;4.60
70533;BMP180;58088;51.186;17.130;2022-12-07T06:15:38;99727.60;;;4.60
70533;BMP180;58088;51.186;17.130;2022-12-07T06:18:04;99716.60;;;4.54
70533;BMP180;58088;51.186;17.130;2022-12-07T06:20:31;99720.20;;;4.58
70533;BMP180;58088;51.186;17.130;2022-12-07T06:22:57;99721.80;;;4.60
70533;BMP180;58088;51.186;17.130;2022-12-07T06:25:23;99721.00;;;4.60
70533;BMP180;58088;51.186;17.130;2022-12-07T06:27:49;99723.20;;;4.54
70533;BMP180;58088;51.186;17.130;2022-12-07T06:30:16;99722.20;;;4.52
70533;BMP180;58088;51.186;17.130;2022-12-07T06:32:42;99721.20;;;4.50
70533;BMP180;58088;51.186;17.130;2022-12-07T06:35:08;99725.20;;;4.52
70533;BMP180;58088;51.186;17.130;2022-12-07T06:37:34;99718.80;;;4.56
70533;BMP180;58088;51.186;17.130;2022-12-07T06:40:00;99720.80;;;4.50
70533;BMP180;58088;51.186;17.130;2022-12-07T06:42:27;99718.00;;;4.54
70533;BMP180;58088;51.186;17.130;2022-12-07T06:44:53;99722.00;;;4.50
70533;BMP180;58088;51.186;17.130;2022-12-07T06:47:20;99724.60;;;4.52
70533;BMP180;58088;51.186;17.130;2022-12-07T06:49:46;99729.40;;;4.54
70533;BMP180;58088;51.186;17.130;2022-12-07T06:52:12;99735.40;;;4.58
70533;BMP180;58088;51.186;17.130;2022-12-07T06:54:39;99735.00;;;4.50
70533;BMP180;58088;51.186;17.130;2022-12-07T06:57:05;99738.80;;;4.50
70533;BMP180;58088;51.186;17.130;2022-12-07T06:59:31;99733.80;;;4.56
70533;BMP180;58088;51.186;17.130;2022-12-07T07:01:57;99739.00;;;4.56
70533;BMP180;58088;51.186;17.130;2022-12-07T07:04:23;99732.80;;;4.58
70533;BMP180;58088;51.186;17.130;2022-12-07T07:06:50;99731.20;;;4.50
70533;BMP180;58088;51.186;17.130;2022-12-07T07:09:17;99736.40;;;4.50
70533;BMP180;58088;51.186;17.130;2022-12-07T07:11:43;99737.40;;;4.50
70533;BMP180;58088;51.186;17.130;2022-12-07T07:14:10;99731.20;;;4.50
70533;BMP180;58088;51.186;17.130;2022-12-07T07:16:36;99729.40;;;4.50
70533;BMP180;58088;51.186;17.130;2022-12-07T07:19:02;99722.20;;;4.50
70533;BMP180;58088;51.186;17.130;2022-12-07T07:21:29;99727.20;;;4.50
70533;BMP180;58088;51.186;17.130;2022-12-07T07:23:55;99722.80;;;4.50
70533;BMP180;58088;51.186;17.130;2022-12-07T07:26:22;99722.00;;;4.50
70533;BMP180;58088;51.186;17.130;2022-12-07T07:28:49;99720.40;;;4.50
70533;BMP180;58088;51.186;17.130;2022-12-07T07:31:15;99730.40;;;4.50
70533;BMP180;58088;51.186;17.130;2022-12-07T07:33:41;99723.80;;;4.50
70533;BMP180;58088;51.186;17.130;2022-12-07T07:36:08;99723.20;;;4.50
70533;BMP180;58088;51.186;17.130;2022-12-07T07:38:34;99720.60;;;4.50
70533;BMP180;58088;51.186;17.130;2022-12-07T07:41:00;99716.00;;;4.50
70533;BMP180;58088;51.186;17.130;2022-12-07T07:43:27;99718.80;;;4.50
70533;BMP180;58088;51.186;17.130;2022-12-07T07:45:53;99719.60;;;4.50
70533;BMP180;58088;51.186;17.130;2022-12-07T07:48:19;99719.00;;;4.60
70533;BMP180;58088;51.186;17.130;2022-12-07T07:50:45;99727.80;;;4.60
70533;BMP180;58088;51.186;17.130;2022-12-07T07:53:11;99717.40;;;4.60
70533;BMP180;58088;51.186;17.130;2022-12-07T07:55:37;99713.20;;;4.60
70533;BMP180;58088;51.186;17.130;2022-12-07T07:58:04;99719.00;;;4.66
70533;BMP180;58088;51.186;17.130;2022-12-07T08:00:30;99717.20;;;4.70
70533;BMP180;58088;51.186;17.130;2022-12-07T08:02:56;99724.80;;;4.80
70533;BMP180;58088;51.186;17.130;2022-12-07T08:05:22;99726.20;;;4.88
70533;BMP180;58088;51.186;17.130;2022-12-07T08:07:49;99723.40;;;4.90
70533;BMP180;58088;51.186;17.130;2022-12-07T08:10:15;99726.60;;;4.90
70533;BMP180;58088;51.186;17.130;2022-12-07T08:12:43;99726.80;;;4.90
70533;BMP180;58088;51.186;17.130;2022-12-07T08:15:30;99736.80;;;4.90
70533;BMP180;58088;51.186;17.130;2022-12-07T08:17:58;99732.80;;;4.90
70533;BMP180;58088;51.186;17.130;2022-12-07T08:20:24;99740.60;;;4.90
70533;BMP180;58088;51.186;17.130;2022-12-07T08:22:51;99734.20;;;4.90
70533;BMP180;58088;51.186;17.130;2022-12-07T08:25:17;99734.40;;;4.90
70533;BMP180;58088;51.186;17.130;2022-12-07T08:27:43;99731.60;;;4.90
70533;BMP180;58088;51.186;17.130;2022-12-07T08:30:10;99730.60;;;4.90
70533;BMP180;58088;51.186;17.130;2022-12-07T08:32:36;99731.00;;;4.90
70533;BMP180;58088;51.186;17.130;2022-12-07T08:35:02;99726.20;;;4.90
70533;BMP180;58088;51.186;17.130;2022-12-07T08:37:29;99730.20;;;4.90
70533;BMP180;58088;51.186;17.130;2022-12-07T08:39:55;99731.00;;;4.90
70533;BMP180;58088;51.186;17.130;2022-12-07T08:42:22;99726.20;;;5.00
70533;BMP180;58088;51.186;17.130;2022-12-07T08:44:53;99723.60;;;5.08
70533;BMP180;58088;51.186;17.130;2022-12-07T08:47:19;99718.00;;;5.20
70533;BMP180;58088;51.186;17.130;2022-12-07T08:49:50;99722.80;;;5.20
70533;BMP180;58088;51.186;17.130;2022-12-07T08:52:17;99718.40;;;5.26
70533;BMP180;58088;51.186;17.130;2022-12-07T08:54:44;99716.80;;;5.30
70533;BMP180;58088;51.186;17.130;2022-12-07T08:57:12;99710.20;;;5.30
70533;BMP180;58088;51.186;17.130;2022-12-07T08:59:38;99713.00;;;5.30
70533;BMP180;58088;51.186;17.130;2022-12-07T09:02:06;99704.60;;;5.40
70533;BMP180;58088;51.186;17.130;2022-12-07T09:04:32;99704.00;;;5.50
70533;BMP180;58088;51.186;17.130;2022-12-07T09:06:59;99702.20;;;5.60
70533;BMP180;58088;51.186;17.130;2022-12-07T09:09:25;99697.40;;;5.68
70533;BMP180;58088;51.186;17.130;2022-12-07T09:11:51;99697.80;;;5.70
70533;BMP180;58088;51.186;17.130;2022-12-07T09:14:17;99694.60;;;5.90
70533;BMP180;58088;51.186;17.130;2022-12-07T09:16:44;99694.60;;;5.90
70533;BMP180;58088;51.186;17.130;2022-12-07T09:19:11;99691.80;;;5.90
70533;BMP180;58088;51.186;17.130;2022-12-07T09:21:37;99692.40;;;5.90
70533;BMP180;58088;51.186;17.130;2022-12-07T09:24:04;99684.40;;;6.00
70533;BMP180;58088;51.186;17.130;2022-12-07T09:26:30;99680.60;;;5.94
70533;BMP180;58088;51.186;17.130;2022-12-07T09:28:56;99684.20;;;6.00
70533;BMP180;58088;51.186;17.130;2022-12-07T09:31:23;99683.60;;;6.04
70533;BMP180;58088;51.186;17.130;2022-12-07T09:33:58;99682.40;;;6.10
70533;BMP180;58088;51.186;17.130;2022-12-07T09:36:25;99678.00;;;6.20
70533;BMP180;58088;51.186;17.130;2022-12-07T09:38:53;99675.60;;;6.30
70533;BMP180;58088;51.186;17.130;2022-12-07T09:41:21;99674.20;;;6.38
70533;BMP180;58088;51.186;17.130;2022-12-07T09:43:49;99663.40;;;6.40
70533;BMP180;58088;51.186;17.130;2022-12-07T09:46:19;99667.80;;;6.44
70533;BMP180;58088;51.186;17.130;2022-12-07T09:48:47;99656.60;;;6.40
70533;BMP180;58088;51.186;17.130;2022-12-07T09:51:22;99660.40;;;6.40
70533;BMP180;58088;51.186;17.130;2022-12-07T09:53:50;99656.20;;;6.40
70533;BMP180;58088;51.186;17.130;2022-12-07T09:56:19;99650.60;;;6.40
70533;BMP180;58088;51.186;17.130;2022-12-07T09:58:46;99649.00;;;6.40
70533;BMP180;58088;51.186;17.130;2022-12-07T10:01:20;99650.20;;;6.36
70533;BMP180;58088;51.186;17.130;2022-12-07T10:03:54;99648.80;;;6.30
70533;BMP180;58088;51.186;17.130;2022-12-07T10:06:23;99644.80;;;6.30
70533;BMP180;58088;51.186;17.130;2022-12-07T10:08:49;99629.80;;;6.32
70533;BMP180;58088;51.186;17.130;2022-12-07T10:11:15;99630.20;;;6.30
70533;BMP180;58088;51.186;17.130;2022-12-07T10:13:45;99624.00;;;6.40
70533;BMP180;58088;51.186;17.130;2022-12-07T10:16:35;99616.20;;;6.40
70533;BMP180;58088;51.186;17.130;2022-12-07T10:19:32;99613.00;;;6.40
70533;BMP180;58088;51.186;17.130;2022-12-07T10:22:15;99608.20;;;6.40
70533;BMP180;58088;51.186;17.130;2022-12-07T10:24:47;99609.40;;;6.38
70533;BMP180;58088;51.186;17.130;2022-12-07T10:27:26;99608.60;;;6.40
70533;BMP180;58088;51.186;17.130;2022-12-07T10:29:55;99603.20;;;6.32
70533;BMP180;58088;51.186;17.130;2022-12-07T10:32:33;99604.60;;;6.30
70533;BMP180;58088;51.186;17.130;2022-12-07T10:35:27;99608.40;;;6.38
70533;BMP180;58088;51.186;17.130;2022-12-07T10:37:58;99608.60;;;6.36
70533;BMP180;58088;51.186;17.130;2022-12-07T10:40:34;99597.80;;;6.40
70533;BMP180;58088;51.186;17.130;2022-12-07T10:43:20;99605.80;;;6.34
70533;BMP180;58088;51.186;17.130;2022-12-07T11:00:24;99612.40;;;6.10
70533;BMP180;58088;51.186;17.130;2022-12-07T11:03:41;99610.20;;;6.00
70533;BMP180;58088;51.186;17.130;2022-12-07T11:06:29;99601.80;;;6.00
70533;BMP180;58088;51.186;17.130;2022-12-07T11:09:14;99597.80;;;6.00
70533;BMP180;58088;51.186;17.130;2022-12-07T11:14:36;99604.80;;;5.90
70533;BMP180;58088;51.186;17.130;2022-12-07T11:17:16;99601.40;;;5.90
70533;BMP180;58088;51.186;17.130;2022-12-07T11:29:24;99592.80;;;5.80
70533;BMP180;58088;51.186;17.130;2022-12-07T11:32:34;99589.80;;;5.80
70533;BMP180;58088;51.186;17.130;2022-12-07T11:35:21;99586.60;;;5.80
70533;BMP180;58088;51.186;17.130;2022-12-07T11:37:55;99584.00;;;5.80
70533;BMP180;58088;51.186;17.130;2022-12-07T11:40:34;99582.40;;;5.80
70533;BMP180;58088;51.186;17.130;2022-12-07T11:43:27;99581.80;;;5.80
70533;BMP180;58088;51.186;17.130;2022-12-07T11:46:04;99575.00;;;5.80
70533;BMP180;58088;51.186;17.130;2022-12-07T11:51:40;99577.00;;;5.80
70533;BMP180;58088;51.186;17.130;2022-12-07T11:54:23;99573.80;;;5.80
70533;BMP180;58088;51.186;17.130;2022-12-07T11:56:51;99569.60;;;5.82
70533;BMP180;58088;51.186;17.130;2022-12-07T11:59:29;99573.20;;;5.88
70533;BMP180;58088;51.186;17.130;2022-12-07T12:02:22;99575.40;;;5.84
70533;BMP180;58088;51.186;17.130;2022-12-07T12:05:21;99578.20;;;5.80
70533;BMP180;58088;51.186;17.130;2022-12-07T12:08:13;99576.60;;;5.80
70533;BMP180;58088;51.186;17.130;2022-12-07T12:11:09;99575.40;;;5.84
70533;BMP180;58088;51.186;17.130;2022-12-07T12:22:42;99574.60;;;5.60
70533;BMP180;58088;51.186;17.130;2022-12-07T12:25:25;99578.20;;;5.66
70533;BMP180;58088;51.186;17.130;2022-12-07T12:27:58;99572.60;;;5.70
70533;BMP180;58088;51.186;17.130;2022-12-07T12:30:39;99576.80;;;5.70
70533;BMP180;58088;51.186;17.130;2022-12-07T12:33:28;99564.80;;;5.70
70533;BMP180;58088;51.186;17.130;2022-12-07T12:36:19;99566.80;;;5.80
70533;BMP180;58088;51.186;17.130;2022-12-07T12:41:54;99557.40;;;5.86
70533;BMP180;58088;51.186;17.130;2022-12-07T12:47:00;99552.60;;;5.90
70533;BMP180;58088;51.186;17.130;2022-12-07T12:49:43;99546.60;;;5.90
70533;BMP180;58088;51.186;17.130;2022-12-07T12:57:36;99548.40;;;6.00
70533;BMP180;58088;51.186;17.130;2022-12-07T13:00:22;99549.40;;;6.00
70533;BMP180;58088;51.186;17.130;2022-12-07T13:02:53;99556.00;;;6.04
70533;BMP180;58088;51.186;17.130;2022-12-07T13:05:29;99552.20;;;6.10
70533;BMP180;58088;51.186;17.130;2022-12-07T13:08:00;99553.20;;;6.10
70533;BMP180;58088;51.186;17.130;2022-12-07T13:26:20;99563.00;;;6.10
70533;BMP180;58088;51.186;17.130;2022-12-07T13:29:03;99563.60;;;6.10
70533;BMP180;58088;51.186;17.130;2022-12-07T13:34:38;99564.60;;;6.08
70533;BMP180;58088;51.186;17.130;2022-12-07T13:37:27;99566.00;;;6.00
70533;BMP180;58088;51.186;17.130;2022-12-07T13:39:58;99565.00;;;6.00
70533;BMP180;58088;51.186;17.130;2022-12-07T13:42:30;99566.60;;;6.00
70533;BMP180;58088;51.186;17.130;2022-12-07T13:44:58;99564.80;;;5.96
70533;BMP180;58088;51.186;17.130;2022-12-07T13:50:24;99568.20;;;5.92
70533;BMP180;58088;51.186;17.130;2022-12-07T13:52:56;99573.00;;;5.96
70533;BMP180;58088;51.186;17.130;2022-12-07T13:55:23;99573.20;;;5.90
70533;BMP180;58088;51.186;17.130;2022-12-07T13:57:52;99561.20;;;5.90
70533;BMP180;58088;51.186;17.130;2022-12-07T14:00:30;99563.40;;;5.90
70533;BMP180;58088;51.186;17.130;2022-12-07T14:03:27;99561.20;;;5.90
70533;BMP180;58088;51.186;17.130;2022-12-07T14:06:16;99557.60;;;5.86
70533;BMP180;58088;51.186;17.130;2022-12-07T14:08:44;99551.60;;;5.80
70533;BMP180;58088;51.186;17.130;2022-12-07T14:11:18;99549.80;;;5.80
70533;BMP180;58088;51.186;17.130;2022-12-07T14:13:56;99541.40;;;5.80
70533;BMP180;58088;51.186;17.130;2022-12-07T14:16:34;99544.20;;;5.80
70533;BMP180;58088;51.186;17.130;2022-12-07T14:22:08;99553.80;;;5.70
70533;BMP180;58088;51.186;17.130;2022-12-07T14:24:43;99560.40;;;5.70
70533;BMP180;58088;51.186;17.130;2022-12-07T14:27:24;99554.40;;;5.70
70533;BMP180;58088;51.186;17.130;2022-12-07T14:29:56;99554.20;;;5.70
70533;BMP180;58088;51.186;17.130;2022-12-07T14:32:27;99559.40;;;5.70
70533;BMP180;58088;51.186;17.130;2022-12-07T14:34:57;99555.00;;;5.70
70533;BMP180;58088;51.186;17.130;2022-12-07T14:37:24;99562.20;;;5.70
70533;BMP180;58088;51.186;17.130;2022-12-07T14:39:51;99561.80;;;5.66
70533;BMP180;58088;51.186;17.130;2022-12-07T14:42:19;99563.00;;;5.70
70533;BMP180;58088;51.186;17.130;2022-12-07T14:44:45;99570.20;;;5.70
70533;BMP180;58088;51.186;17.130;2022-12-07T14:47:12;99571.00;;;5.68
70533;BMP180;58088;51.186;17.130;2022-12-07T14:49:38;99570.80;;;5.66
70533;BMP180;58088;51.186;17.130;2022-12-07T14:52:13;99577.00;;;5.60
70533;BMP180;58088;51.186;17.130;2022-12-07T14:54:41;99577.60;;;5.70
70533;BMP180;58088;51.186;17.130;2022-12-07T14:57:11;99577.20;;;5.70
70533;BMP180;58088;51.186;17.130;2022-12-07T14:59:38;99582.80;;;5.66
70533;BMP180;58088;51.186;17.130;2022-12-07T15:02:06;99575.80;;;5.60
70533;BMP180;58088;51.186;17.130;2022-12-07T15:04:33;99584.20;;;5.60
70533;BMP180;58088;51.186;17.130;2022-12-07T15:07:03;99582.20;;;5.60
70533;BMP180;58088;51.186;17.130;2022-12-07T15:09:30;99589.20;;;5.60
70533;BMP180;58088;51.186;17.130;2022-12-07T15:11:56;99591.00;;;5.60
70533;BMP180;58088;51.186;17.130;2022-12-07T15:14:23;99592.80;;;5.60
70533;BMP180;58088;51.186;17.130;2022-12-07T15:16:49;99595.20;;;5.64
70533;BMP180;58088;51.186;17.130;2022-12-07T15:19:23;99590.60;;;5.60
70533;BMP180;58088;51.186;17.130;2022-12-07T15:21:52;99600.80;;;5.60
70533;BMP180;58088;51.186;17.130;2022-12-07T15:24:20;99596.20;;;5.60
70533;BMP180;58088;51.186;17.130;2022-12-07T15:26:47;99599.80;;;5.70
70533;BMP180;58088;51.186;17.130;2022-12-07T15:29:14;99598.60;;;5.62
70533;BMP180;58088;51.186;17.130;2022-12-07T15:31:43;99596.20;;;5.68
70533;BMP180;58088;51.186;17.130;2022-12-07T15:34:09;99599.40;;;5.60
70533;BMP180;58088;51.186;17.130;2022-12-07T15:36:39;99604.40;;;5.68
70533;BMP180;58088;51.186;17.130;2022-12-07T15:39:06;99604.40;;;5.60
70533;BMP180;58088;51.186;17.130;2022-12-07T15:41:33;99601.40;;;5.60
70533;BMP180;58088;51.186;17.130;2022-12-07T15:43:59;99598.80;;;5.60
70533;BMP180;58088;51.186;17.130;2022-12-07T15:46:44;99599.20;;;5.60
70533;BMP180;58088;51.186;17.130;2022-12-07T15:49:15;99599.00;;;5.52
70533;BMP180;58088;51.186;17.130;2022-12-07T15:51:43;99596.60;;;5.50
70533;BMP180;58088;51.186;17.130;2022-12-07T15:54:22;99599.20;;;5.50
70533;BMP180;58088;51.186;17.130;2022-12-07T15:56:49;99597.60;;;5.50
70533;BMP180;58088;51.186;17.130;2022-12-07T15:59:17;99607.60;;;5.50
70533;BMP180;58088;51.186;17.130;2022-12-07T16:01:43;99605.80;;;5.40
70533;BMP180;58088;51.186;17.130;2022-12-07T16:04:10;99600.00;;;5.40
70533;BMP180;58088;51.186;17.130;2022-12-07T16:06:38;99606.00;;;5.40
70533;BMP180;58088;51.186;17.130;2022-12-07T16:09:05;99612.60;;;5.40
70533;BMP180;58088;51.186;17.130;2022-12-07T16:11:37;99608.60;;;5.32
70533;BMP180;58088;51.186;17.130;2022-12-07T16:14:06;99614.00;;;5.30
70533;BMP180;58088;51.186;17.130;2022-12-07T16:16:33;99618.60;;;5.30
70533;BMP180;58088;51.186;17.130;2022-12-07T16:19:00;99619.20;;;5.20